createdAt,value
2023-03-01T00:01:44.719Z,14.73
2023-03-01T00:04:15.081Z,15.30
2023-03-01T00:06:47.136Z,14.88
2023-03-01T00:09:15.430Z,13.35
2023-03-01T00:11:43.022Z,14.75
2023-03-01T00:14:10.305Z,14.70
2023-03-01T00:16:41.929Z,12.23
2023-03-01T00:19:15.446Z,12.50
2023-03-01T00:21:42.806Z,14.05
2023-03-01T00:24:10.231Z,12.30
2023-03-01T00:26:37.621Z,13.27
2023-03-01T00:29:05.156Z,12.70
2023-03-01T00:31:33.711Z,13.38
2023-03-01T00:34:03.601Z,11.88
2023-03-01T00:36:36.415Z,12.65
2023-03-01T00:39:10.910Z,12.77
2023-03-01T00:41:38.157Z,12.02
2023-03-01T00:44:05.454Z,10.82
2023-03-01T00:46:35.267Z,11.70
2023-03-01T00:49:03.348Z,12.68
2023-03-01T00:51:31.313Z,13.30
2023-03-01T00:54:00.305Z,11.52
2023-03-01T00:56:28.436Z,11.70
2023-03-01T00:58:55.859Z,10.90
2023-03-01T01:01:28.246Z,12.57
2023-03-01T01:03:58.250Z,10.60
2023-03-01T01:06:48.047Z,12.20
2023-03-01T01:09:20.408Z,11.02
2023-03-01T01:11:48.963Z,10.48
2023-03-01T01:14:17.040Z,12.70
2023-03-01T01:16:44.832Z,10.55
2023-03-01T01:19:15.760Z,11.13
2023-03-01T01:21:46.001Z,10.73
2023-03-01T01:24:13.648Z,12.38
2023-03-01T01:26:41.066Z,10.77
2023-03-01T01:29:08.478Z,12.57
2023-03-01T01:31:36.733Z,12.82
2023-03-01T01:34:04.896Z,13.38
2023-03-01T01:36:32.947Z,13.60
2023-03-01T01:39:00.409Z,12.75
2023-03-01T01:41:28.528Z,12.80
2023-03-01T01:44:15.162Z,10.93
2023-03-01T01:47:05.249Z,11.48
2023-03-01T01:49:39.154Z,10.63
2023-03-01T01:52:17.838Z,10.25
2023-03-01T01:55:13.089Z,11.60
2023-03-01T01:57:46.036Z,10.88
2023-03-01T02:00:22.777Z,11.68
2023-03-01T02:02:55.949Z,11.77
2023-03-01T02:05:55.434Z,10.52
2023-03-01T02:08:24.835Z,11.32
2023-03-01T02:10:52.059Z,9.30
2023-03-01T02:13:20.692Z,11.45
2023-03-01T02:15:48.451Z,11.35
2023-03-01T02:18:22.018Z,10.77
2023-03-01T02:21:07.072Z,9.98
2023-03-01T02:23:34.319Z,9.45
2023-03-01T02:26:42.437Z,9.25
2023-03-01T02:29:09.684Z,9.65
2023-03-01T02:31:45.867Z,9.32
2023-03-01T02:34:21.568Z,10.88
2023-03-01T02:37:10.551Z,8.15
2023-03-01T02:39:43.061Z,8.13
2023-03-01T02:42:26.193Z,8.50
2023-03-01T02:44:55.048Z,9.40
2023-03-01T02:47:22.357Z,9.45
2023-03-01T02:49:50.041Z,8.75
2023-03-01T02:52:41.021Z,9.10
2023-03-01T02:55:14.067Z,7.82
2023-03-01T02:57:44.045Z,8.55
2023-03-01T03:00:24.567Z,7.05
2023-03-01T03:02:53.096Z,8.10
2023-03-01T03:05:22.248Z,8.98
2023-03-01T03:07:53.218Z,7.03
2023-03-01T03:10:26.540Z,9.93
2023-03-01T03:12:57.258Z,11.90
2023-03-01T03:15:25.934Z,11.13
2023-03-01T03:17:53.653Z,11.50
2023-03-01T03:20:22.697Z,13.25
2023-03-01T03:22:52.140Z,13.82
2023-03-01T03:25:19.511Z,13.02
2023-03-01T03:27:48.156Z,12.27
2023-03-01T03:30:18.239Z,10.73
2023-03-01T03:32:54.349Z,10.52
2023-03-01T03:35:35.536Z,12.32
2023-03-01T03:38:07.415Z,10.95
2023-03-01T03:40:35.452Z,9.88
2023-03-01T03:43:04.088Z,12.55
2023-03-01T03:45:37.458Z,9.32
2023-03-01T03:48:06.472Z,11.35
2023-03-01T03:50:33.859Z,10.07
2023-03-01T03:53:02.445Z,9.35
2023-03-01T03:55:31.671Z,9.98
2023-03-01T03:58:02.390Z,10.23
2023-03-01T04:00:29.820Z,10.13
2023-03-01T04:02:57.582Z,8.32
2023-03-01T04:05:25.097Z,9.50
2023-03-01T04:08:02.010Z,8.70
2023-03-01T04:10:31.458Z,8.00
2023-03-01T04:12:59.169Z,9.13
2023-03-01T04:15:26.930Z,8.13
2023-03-01T04:17:54.634Z,7.82
2023-03-01T04:20:26.991Z,8.02
2023-03-01T04:23:00.750Z,9.82
2023-03-01T04:25:28.035Z,7.95
2023-03-01T04:27:55.312Z,7.78
2023-03-01T04:30:26.415Z,7.90
2023-03-01T04:32:54.302Z,8.32
2023-03-01T04:35:21.737Z,7.47
2023-03-01T04:37:48.936Z,8.57
2023-03-01T04:40:17.628Z,7.07
2023-03-01T04:42:44.873Z,7.22
2023-03-01T04:45:15.032Z,8.98
2023-03-01T04:47:46.948Z,7.40
2023-03-01T04:50:16.963Z,7.35
2023-03-01T04:52:44.858Z,7.28
2023-03-01T04:55:12.305Z,7.63
2023-03-01T04:57:40.543Z,8.80
2023-03-01T05:00:23.364Z,7.78
2023-03-01T05:05:26.663Z,8.40
2023-03-01T05:08:18.311Z,8.48
2023-03-01T05:10:50.056Z,7.28
2023-03-01T05:13:22.007Z,7.95
2023-03-01T05:15:56.752Z,8.55
2023-03-01T05:18:27.562Z,8.10
2023-03-01T05:20:57.294Z,6.60
2023-03-01T05:23:25.455Z,9.07
2023-03-01T05:25:53.489Z,7.30
2023-03-01T05:28:21.152Z,7.72
2023-03-01T05:30:48.459Z,9.30
2023-03-01T05:33:15.981Z,7.63
2023-03-01T05:35:43.873Z,8.55
2023-03-01T05:38:14.214Z,9.60
2023-03-01T05:40:45.360Z,9.00
2023-03-01T05:43:13.722Z,8.55
2023-03-01T05:45:43.249Z,8.40
2023-03-01T05:48:11.174Z,7.38
2023-03-01T05:50:40.345Z,7.55
2023-03-01T05:53:10.780Z,7.05
2023-03-01T05:55:38.188Z,7.45
2023-03-01T05:58:07.064Z,7.78
2023-03-01T06:00:35.759Z,7.78
2023-03-01T06:03:05.063Z,7.70
2023-03-01T06:05:33.912Z,6.90
2023-03-01T06:08:01.728Z,7.55
2023-03-01T06:10:29.068Z,7.05
2023-03-01T06:12:56.466Z,7.85
2023-03-01T06:15:31.449Z,7.68
2023-03-01T06:18:00.305Z,8.55
2023-03-01T06:20:28.630Z,6.57
2023-03-01T06:22:57.063Z,6.90
2023-03-01T06:25:25.739Z,7.43
2023-03-01T06:27:55.963Z,7.68
2023-03-01T06:30:24.323Z,7.85
2023-03-01T06:32:53.781Z,8.38
2023-03-01T06:35:21.180Z,7.97
2023-03-01T06:37:48.899Z,7.65
2023-03-01T06:40:16.387Z,8.13
2023-03-01T06:42:45.371Z,7.85
2023-03-01T06:45:13.961Z,7.75
2023-03-01T06:47:41.494Z,7.88
2023-03-01T06:50:09.504Z,8.50
2023-03-01T06:52:36.842Z,8.43
2023-03-01T06:55:05.674Z,8.68
2023-03-01T06:57:32.907Z,8.80
2023-03-01T07:00:00.256Z,8.90
2023-03-01T07:02:27.576Z,7.80
2023-03-01T07:04:55.050Z,7.70
2023-03-01T07:07:22.305Z,9.18
2023-03-01T07:09:50.474Z,9.38
2023-03-01T07:12:17.956Z,9.00
2023-03-01T07:14:45.274Z,8.63
2023-03-01T07:17:12.593Z,7.97
2023-03-01T07:19:39.975Z,8.73
2023-03-01T07:22:08.962Z,7.25
2023-03-01T07:24:36.397Z,6.93
2023-03-01T07:27:03.723Z,7.72
2023-03-01T07:29:32.293Z,6.03
2023-03-01T07:32:00.946Z,6.85
2023-03-01T07:34:28.556Z,6.60
2023-03-01T07:36:56.386Z,6.43
2023-03-01T07:39:26.537Z,6.93
2023-03-01T07:41:53.869Z,7.65
2023-03-01T07:44:21.223Z,6.88
2023-03-01T07:46:48.791Z,7.57
2023-03-01T07:49:16.134Z,6.68
2023-03-01T07:51:44.516Z,6.97
2023-03-01T07:54:12.601Z,6.90
2023-03-01T07:56:41.733Z,7.07
2023-03-01T07:59:09.056Z,7.18
2023-03-01T08:01:36.641Z,8.07
2023-03-01T08:04:05.755Z,7.25
2023-03-01T08:06:35.503Z,8.43
2023-03-01T08:09:03.229Z,7.10
2023-03-01T08:11:31.376Z,8.45
2023-03-01T08:14:18.518Z,6.90
2023-03-01T08:16:50.518Z,7.78
2023-03-01T08:19:17.821Z,8.00
2023-03-01T08:21:45.140Z,10.30
2023-03-01T08:24:14.812Z,8.30
2023-03-01T08:26:42.560Z,8.02
2023-03-01T08:29:14.551Z,7.55
2023-03-01T08:31:42.168Z,9.05
2023-03-01T08:34:11.335Z,7.70
2023-03-01T08:36:43.203Z,10.10
2023-03-01T08:39:11.940Z,8.07
2023-03-01T08:41:39.435Z,8.30
2023-03-01T08:44:07.003Z,6.75
2023-03-01T08:46:38.132Z,8.27
2023-03-01T08:49:09.606Z,8.40
2023-03-01T08:51:37.909Z,8.13
2023-03-01T08:54:05.949Z,7.90
2023-03-01T08:56:34.704Z,8.07
2023-03-01T08:59:02.004Z,7.75
2023-03-01T09:01:29.654Z,8.32
2023-03-01T09:03:56.941Z,6.43
2023-03-01T09:06:32.304Z,7.90
2023-03-01T09:08:59.762Z,6.22
2023-03-01T09:11:27.654Z,6.82
2023-03-01T09:13:56.708Z,6.95
2023-03-01T09:16:25.232Z,7.43
2023-03-01T09:18:53.445Z,7.18
2023-03-01T09:21:38.634Z,7.00
2023-03-01T09:24:07.315Z,7.25
2023-03-01T09:26:34.575Z,5.70
2023-03-01T09:29:02.118Z,6.43
2023-03-01T09:31:29.616Z,6.57
2023-03-01T09:33:56.990Z,6.20
2023-03-01T09:36:26.264Z,6.03
2023-03-01T09:38:54.321Z,5.72
2023-03-01T09:41:46.817Z,7.15
2023-03-01T09:44:28.251Z,6.90
2023-03-01T09:46:58.102Z,6.30
2023-03-01T09:49:27.472Z,5.85
2023-03-01T09:52:14.817Z,6.22
2023-03-01T09:54:42.091Z,5.65
2023-03-01T09:57:39.794Z,5.47
2023-03-01T10:00:13.314Z,6.28
2023-03-01T10:03:14.617Z,6.53
2023-03-01T10:05:56.778Z,5.25
2023-03-01T10:09:03.731Z,6.47
2023-03-01T10:11:38.421Z,6.88
2023-03-01T10:14:24.478Z,7.65
2023-03-01T10:16:53.670Z,6.55
2023-03-01T10:19:32.706Z,5.82
2023-03-01T10:22:22.178Z,6.93
2023-03-01T10:24:52.267Z,5.90
2023-03-01T10:27:35.873Z,7.30
2023-03-01T10:30:17.677Z,7.07
2023-03-01T10:32:45.490Z,8.30
2023-03-01T10:35:24.601Z,9.10
2023-03-01T10:38:18.092Z,11.52
2023-03-01T10:40:53.943Z,9.80
2023-03-01T10:43:22.545Z,8.32
2023-03-01T10:45:49.832Z,10.10
2023-03-01T10:48:27.210Z,11.25
2023-03-01T10:51:00.426Z,10.15
2023-03-01T10:53:39.207Z,9.13
2023-03-01T10:56:08.111Z,8.98
2023-03-01T10:58:36.526Z,9.55
2023-03-01T11:01:15.770Z,9.02
2023-03-01T11:03:43.433Z,7.78
2023-03-01T11:06:13.697Z,9.05
2023-03-01T11:08:48.582Z,7.75
2023-03-01T11:11:22.894Z,6.22
2023-03-01T11:14:27.950Z,5.40
2023-03-01T11:17:01.323Z,5.90
2023-03-01T11:22:04.954Z,7.07
2023-03-01T11:24:35.443Z,6.75
2023-03-01T11:27:04.583Z,8.00
2023-03-01T11:29:47.767Z,6.43
2023-03-01T11:32:15.763Z,6.97
2023-03-01T11:34:57.113Z,7.15
2023-03-01T11:37:37.018Z,5.78
2023-03-01T11:40:17.210Z,4.70
2023-03-01T11:42:54.735Z,6.47
2023-03-01T11:45:23.726Z,5.13
2023-03-01T11:47:53.968Z,5.50
2023-03-01T11:50:29.967Z,6.85
2023-03-01T11:53:09.342Z,5.78
2023-03-01T11:55:56.847Z,5.63
2023-03-01T11:58:46.885Z,5.90
2023-03-01T12:01:46.121Z,6.70
2023-03-01T12:04:38.508Z,6.65
2023-03-01T12:07:13.692Z,6.40
2023-03-01T12:10:27.557Z,6.93
2023-03-01T12:12:54.706Z,5.93
2023-03-01T12:15:31.422Z,6.03
2023-03-01T12:18:18.390Z,7.43
2023-03-01T12:20:57.815Z,7.88
2023-03-01T12:23:35.793Z,7.00
2023-03-01T12:26:09.397Z,6.47
2023-03-01T12:28:49.215Z,7.70
2023-03-01T12:31:31.388Z,6.25
2023-03-01T12:34:37.264Z,7.45
2023-03-01T12:37:13.983Z,8.02
2023-03-01T12:39:46.845Z,7.95
2023-03-01T12:42:16.882Z,8.13
2023-03-01T12:44:58.416Z,8.93
2023-03-01T12:47:48.819Z,8.73
2023-03-01T12:50:22.898Z,9.67
2023-03-01T12:52:59.452Z,9.23
2023-03-01T12:55:38.944Z,8.27
2023-03-01T12:58:47.205Z,7.88
2023-03-01T13:01:42.052Z,8.10
2023-03-01T13:04:37.842Z,7.90
2023-03-01T13:07:30.325Z,8.10
2023-03-01T13:10:19.418Z,8.13
2023-03-01T13:12:50.486Z,7.75
2023-03-01T13:15:23.903Z,8.23
2023-03-01T13:18:23.984Z,7.35
2023-03-01T13:20:52.595Z,9.52
2023-03-01T13:23:23.923Z,9.30
2023-03-01T13:25:59.898Z,8.50
2023-03-01T13:28:32.877Z,9.40
2023-03-01T13:31:00.128Z,8.23
2023-03-01T13:33:29.863Z,7.90
2023-03-01T13:35:58.643Z,8.82
2023-03-01T13:38:44.550Z,9.77
2023-03-01T13:41:39.619Z,10.10
2023-03-01T13:44:37.090Z,9.40
2023-03-01T13:47:07.468Z,9.90
2023-03-01T13:49:46.641Z,10.93
2023-03-01T13:52:40.540Z,9.90
2023-03-01T13:55:14.891Z,8.73
2023-03-01T13:57:44.276Z,9.85
2023-03-01T14:00:38.002Z,10.27
2023-03-01T14:03:34.549Z,9.70
2023-03-01T14:06:14.625Z,8.77
2023-03-01T14:08:43.154Z,8.73
2023-03-01T14:11:46.964Z,8.15
2023-03-01T14:14:26.982Z,9.32
2023-03-01T14:17:21.761Z,10.25
2023-03-01T14:19:49.243Z,10.15
2023-03-01T14:22:25.798Z,9.52
2023-03-01T14:25:02.427Z,8.55
2023-03-01T14:27:42.893Z,8.00
2023-03-01T14:30:20.334Z,7.10
2023-03-01T14:32:58.135Z,7.53
2023-03-01T14:35:28.338Z,8.15
2023-03-01T14:37:55.773Z,7.45
2023-03-01T14:40:24.980Z,8.32
2023-03-01T14:42:52.304Z,7.50
2023-03-01T14:45:28.124Z,8.10
2023-03-01T14:47:56.742Z,7.35
2023-03-01T14:50:42.726Z,7.25
2023-03-01T14:53:25.168Z,7.25
2023-03-01T14:55:56.230Z,7.63
2023-03-01T14:58:25.164Z,7.88
2023-03-01T15:00:55.417Z,7.72
2023-03-01T15:03:35.977Z,8.95
2023-03-01T15:06:03.291Z,9.10
2023-03-01T15:08:34.026Z,8.68
2023-03-01T15:11:09.024Z,8.70
2023-03-01T15:13:37.041Z,8.60
2023-03-01T15:16:12.299Z,7.90
2023-03-01T15:19:00.098Z,8.57
2023-03-01T15:21:32.180Z,9.75
2023-03-01T15:24:05.632Z,12.23
2023-03-01T15:26:44.129Z,12.20
2023-03-01T15:29:22.581Z,11.35
2023-03-01T15:32:01.012Z,13.90
2023-03-01T15:34:35.572Z,12.48
2023-03-01T15:37:06.768Z,14.35
2023-03-01T15:39:44.743Z,14.00
2023-03-01T15:42:45.241Z,13.50
2023-03-01T15:45:18.507Z,12.02
2023-03-01T15:47:49.878Z,12.82
2023-03-01T15:50:28.133Z,10.55
2023-03-01T15:52:56.293Z,10.00
2023-03-01T15:55:30.072Z,9.18
2023-03-01T15:58:25.227Z,8.73
2023-03-01T16:01:01.539Z,6.97
2023-03-01T16:03:29.739Z,8.27
2023-03-01T16:05:57.051Z,7.03
2023-03-01T16:08:24.477Z,7.28
2023-03-01T16:10:54.622Z,7.28
2023-03-01T16:13:22.764Z,8.48
2023-03-01T16:15:50.029Z,8.02
2023-03-01T16:18:17.350Z,7.35
2023-03-01T16:20:44.913Z,8.70
2023-03-01T16:23:17.978Z,9.27
2023-03-01T16:25:45.969Z,8.55
2023-03-01T16:28:15.166Z,9.05
2023-03-01T16:30:48.234Z,8.32
2023-03-01T16:33:26.446Z,9.43
2023-03-01T16:36:01.233Z,9.50
2023-03-01T16:38:29.657Z,7.78
2023-03-01T16:40:56.919Z,7.65
2023-03-01T16:43:24.566Z,7.78
2023-03-01T16:45:52.265Z,7.47
2023-03-01T16:48:19.710Z,8.63
2023-03-01T16:50:56.652Z,8.20
2023-03-01T16:53:45.621Z,7.90
2023-03-01T16:56:13.663Z,9.10
2023-03-01T16:58:41.110Z,8.18
2023-03-01T17:01:10.240Z,7.38
2023-03-01T17:03:37.678Z,8.90
2023-03-01T17:06:06.156Z,7.38
2023-03-01T17:08:34.583Z,8.52
2023-03-01T17:11:18.897Z,9.80
2023-03-01T17:13:56.502Z,8.40
2023-03-01T17:16:24.422Z,9.23
2023-03-01T17:18:51.703Z,8.43
2023-03-01T17:21:19.006Z,10.15
2023-03-01T17:23:47.154Z,10.10
2023-03-01T17:26:16.243Z,8.52
2023-03-01T17:28:44.107Z,8.93
2023-03-01T17:31:11.445Z,9.40
2023-03-01T17:33:38.967Z,9.38
2023-03-01T17:36:06.482Z,9.23
2023-03-01T17:38:33.930Z,8.85
2023-03-01T17:41:02.165Z,9.48
2023-03-01T17:43:36.040Z,9.45
2023-03-01T17:46:03.627Z,8.75
2023-03-01T17:48:31.016Z,9.20
2023-03-01T17:51:18.704Z,8.30
2023-03-01T17:53:46.290Z,9.90
2023-03-01T17:56:13.658Z,8.75
2023-03-01T17:58:40.942Z,8.35
2023-03-01T18:01:16.609Z,9.05
2023-03-01T18:03:47.730Z,8.18
2023-03-01T18:06:22.890Z,9.75
2023-03-01T18:08:52.310Z,8.95
2023-03-01T18:11:25.826Z,8.30
2023-03-01T18:13:55.338Z,9.70
2023-03-01T18:16:22.995Z,8.75
2023-03-01T18:18:54.182Z,9.25
2023-03-01T18:21:22.952Z,8.80
2023-03-01T18:23:50.212Z,8.63
2023-03-01T18:26:19.641Z,8.65
2023-03-01T18:28:50.823Z,9.07
2023-03-01T18:33:51.790Z,9.30
2023-03-01T18:36:26.820Z,8.70
2023-03-01T18:38:56.201Z,9.23
2023-03-01T18:41:25.180Z,9.75
2023-03-01T18:43:53.477Z,10.00
2023-03-01T18:46:21.058Z,9.85
2023-03-01T18:48:49.236Z,8.80
2023-03-01T18:51:27.201Z,10.07
2023-03-01T18:53:59.398Z,9.60
2023-03-01T18:56:29.532Z,10.68
2023-03-01T18:58:57.589Z,8.60
2023-03-01T19:01:25.978Z,8.80
2023-03-01T19:03:53.434Z,9.15
2023-03-01T19:06:20.721Z,8.52
2023-03-01T19:08:48.121Z,8.85
2023-03-01T19:11:17.717Z,8.82
2023-03-01T19:13:45.899Z,7.93
2023-03-01T19:16:18.605Z,8.77
2023-03-01T19:18:54.576Z,9.70
2023-03-01T19:21:23.052Z,11.15
2023-03-01T19:23:51.819Z,10.05
2023-03-01T19:26:21.356Z,10.90
2023-03-01T19:28:48.654Z,10.13
2023-03-01T19:31:25.668Z,11.63
2023-03-01T19:33:59.470Z,11.18
2023-03-01T19:36:33.841Z,10.50
2023-03-01T19:39:02.529Z,9.55
2023-03-01T19:41:33.598Z,10.32
2023-03-01T19:44:04.609Z,9.40
2023-03-01T19:46:33.644Z,9.75
2023-03-01T19:49:03.072Z,11.57
2023-03-01T19:51:33.372Z,12.43
2023-03-01T19:54:00.750Z,11.10
2023-03-01T19:56:28.111Z,10.27
2023-03-01T19:59:00.716Z,10.48
2023-03-01T20:01:32.990Z,9.68
2023-03-01T20:04:01.580Z,10.82
2023-03-01T20:06:30.283Z,10.27
2023-03-01T20:08:58.653Z,10.35
2023-03-01T20:11:26.059Z,9.90
2023-03-01T20:13:53.375Z,9.98
2023-03-01T20:16:23.056Z,9.60
2023-03-01T20:18:50.341Z,9.77
2023-03-01T20:21:24.048Z,8.80
2023-03-01T20:23:52.243Z,9.75
2023-03-01T20:26:20.497Z,10.32
2023-03-01T20:28:48.698Z,10.77
2023-03-01T20:31:16.842Z,10.18
2023-03-01T20:33:46.226Z,10.10
2023-03-01T20:36:14.555Z,10.68
2023-03-01T20:38:42.134Z,10.30
2023-03-01T20:41:11.399Z,11.00
2023-03-01T20:43:42.105Z,10.75
2023-03-01T20:46:13.154Z,14.05
2023-03-01T20:48:43.087Z,12.45
2023-03-01T20:51:11.321Z,12.05
2023-03-01T20:56:11.379Z,10.23
2023-03-01T20:58:39.705Z,10.00
2023-03-01T21:01:07.485Z,9.18
2023-03-01T21:03:35.148Z,10.02
2023-03-01T21:06:03.990Z,9.20
2023-03-01T21:08:34.686Z,9.70
2023-03-01T21:11:06.345Z,10.15
2023-03-01T21:13:35.050Z,10.50
2023-03-01T21:16:04.973Z,10.40
2023-03-01T21:18:38.198Z,9.07
2023-03-01T21:21:10.584Z,9.40
2023-03-01T21:23:39.596Z,10.15
2023-03-01T21:26:12.040Z,8.10
2023-03-01T21:28:39.585Z,8.65
2023-03-01T21:31:14.029Z,8.20
2023-03-01T21:33:44.510Z,7.20
2023-03-01T21:36:12.943Z,8.18
2023-03-01T21:38:41.944Z,8.70
2023-03-01T21:41:17.519Z,10.88
2023-03-01T21:43:46.954Z,9.77
2023-03-01T21:46:16.599Z,10.85
2023-03-01T21:48:45.846Z,10.88
2023-03-01T21:51:14.911Z,13.15
2023-03-01T21:53:42.702Z,10.65
2023-03-01T21:56:10.453Z,8.55
2023-03-01T21:58:37.737Z,8.02
2023-03-01T22:01:10.013Z,7.88
2023-03-01T22:03:45.431Z,8.02
2023-03-01T22:06:20.621Z,9.48
2023-03-01T22:08:50.196Z,7.18
2023-03-01T22:11:18.695Z,7.50
2023-03-01T22:13:49.333Z,7.90
2023-03-01T22:16:16.861Z,7.32
2023-03-01T22:18:44.393Z,7.20
2023-03-01T22:21:11.976Z,7.47
2023-03-01T22:23:41.442Z,7.95
2023-03-01T22:26:09.340Z,7.40
2023-03-01T22:28:36.667Z,7.90
2023-03-01T22:31:06.932Z,8.05
2023-03-01T22:33:34.242Z,9.23
2023-03-01T22:36:01.511Z,8.10
2023-03-01T22:38:29.208Z,8.57
2023-03-01T22:40:59.135Z,9.32
2023-03-01T22:43:26.487Z,10.13
2023-03-01T22:45:53.857Z,9.70
2023-03-01T22:48:21.662Z,8.95
2023-03-01T22:50:48.960Z,9.25
2023-03-01T22:53:16.523Z,8.98
2023-03-01T22:55:44.391Z,9.00
2023-03-01T22:58:11.739Z,8.25
2023-03-01T23:00:38.999Z,7.80
2023-03-01T23:03:06.403Z,9.48
2023-03-01T23:05:34.150Z,8.90
2023-03-01T23:08:02.839Z,8.30
2023-03-01T23:10:30.625Z,9.23
2023-03-01T23:12:57.848Z,9.50
2023-03-01T23:15:29.828Z,8.77
2023-03-01T23:17:57.602Z,8.82
2023-03-01T23:20:24.853Z,9.45
2023-03-01T23:22:52.397Z,7.78
2023-03-01T23:25:19.620Z,9.07
2023-03-01T23:27:46.963Z,8.13
2023-03-01T23:30:14.756Z,8.52
2023-03-01T23:32:42.142Z,8.98
2023-03-01T23:35:10.698Z,9.20
2023-03-01T23:37:38.255Z,8.13
2023-03-01T23:40:06.602Z,9.05
2023-03-01T23:42:34.356Z,8.60
2023-03-01T23:45:03.903Z,7.72
2023-03-01T23:47:31.862Z,8.00
2023-03-01T23:50:03.295Z,7.80
2023-03-01T23:52:31.264Z,7.95
2023-03-01T23:54:58.872Z,8.93
2023-03-01T23:57:28.653Z,8.27
2023-03-01T23:59:56.009Z,9.15
